| time (UTC) | temp C | wind direction | speed KPH | gust KPH | rain 1hr cm | rain 24hr cm | rain mn cm | humidity % | barometer mb |
| 20260507095505 | 17 | 117 | 0.0 | 0.0 | 0.03 | 1.83 | 1.22 | 94 | 1008.8 |
| 20260507095006 | 17 | 117 | 0.0 | 0.0 | 0.03 | 1.83 | 1.22 | 94 | 1008.8 |
| 20260507094506 | 17 | 117 | 0.0 | 0.0 | 0.03 | 1.83 | 1.22 | 94 | 1008.8 |
| 20260507094005 | 17 | 117 | 0.0 | 0.0 | 0.03 | 1.83 | 1.22 | 94 | 1008.8 |
| 20260507093505 | 17 | 117 | 0.0 | 0.0 | 0.03 | 1.83 | 1.22 | 94 | 1008.8 |
| 20260507093006 | 17 | 117 | 0.0 | 0.0 | 0.03 | 1.83 | 1.22 | 94 | 1009.8 |
| 20260507092505 | 17 | 117 | 0.0 | 0.0 | 0.03 | 1.83 | 1.22 | 94 | 1009.8 |
| 20260507092005 | 17 | 117 | 0.0 | 0.0 | 0.03 | 1.83 | 1.22 | 94 | 1009.8 |
| 20260507090505 | 17 | 117 | 0.0 | 0.0 | 0.03 | 1.80 | 1.19 | 94 | 1009.8 |
| 20260507090005 | 17 | 117 | 0.0 | 0.0 | 0.03 | 1.80 | 1.19 | 94 | 1009.8 |
| 20260507084505 | 17 | 24 | 0.0 | 0.0 | 0.05 | 1.80 | 1.19 | 94 | 1009.8 |
| 20260507084006 | 17 | 24 | 0.0 | 0.0 | 0.05 | 1.80 | 1.19 | 94 | 1009.8 |
| 20260507083505 | 17 | 24 | 0.0 | 0.0 | 0.08 | 1.80 | 1.19 | 94 | 1009.8 |
| 20260507083006 | 17 | 24 | 0.0 | 0.0 | 0.08 | 1.80 | 1.19 | 94 | 1009.8 |
| 20260507082505 | 17 | 24 | 0.0 | 0.0 | 0.08 | 1.80 | 1.19 | 94 | 1009.8 |
| 20260507082005 | 17 | 24 | 0.0 | 0.0 | 0.08 | 1.80 | 1.19 | 94 | 1009.8 |
| 20260507081505 | 17 | 24 | 0.0 | 0.0 | 0.08 | 1.80 | 1.19 | 94 | 1009.8 |
| 20260507081005 | 17 | 24 | 0.0 | 0.0 | 0.08 | 1.80 | 1.19 | 94 | 1009.8 |
| 20260507080506 | 17 | 24 | 0.0 | 0.0 | 0.05 | 1.78 | 1.17 | 94 | 1009.8 |
| 20260507080005 | 17 | 24 | 0.0 | 0.0 | 0.05 | 1.78 | 1.17 | 94 | 1010.2 |
| 20260507075005 | 17 | 24 | 0.0 | 0.0 | 0.05 | 1.78 | 1.17 | 94 | 1010.5 |
| 20260507074505 | 17 | 24 | 0.0 | 1.6 | 0.05 | 1.78 | 1.17 | 94 | 1010.5 |
| 20260507074006 | 17 | 24 | 0.0 | 1.6 | 0.05 | 1.78 | 1.17 | 94 | 1010.5 |
| 20260507073505 | 17 | 24 | 1.6 | 4.8 | 0.03 | 1.75 | 1.14 | 94 | 1010.5 |
| 20260507073005 | 17 | 330 | 0.0 | 4.8 | 0.00 | 1.73 | 1.12 | 94 | 1010.5 |
| 20260507072506 | 17 | 13 | 1.6 | 4.8 | 0.00 | 1.73 | 1.12 | 94 | 1010.5 |
| 20260507072005 | 17 | 12 | 1.6 | 3.2 | 0.00 | 1.73 | 1.12 | 93 | 1010.5 |
| 20260507071506 | 17 | 5 | 0.0 | 1.6 | 0.00 | 1.73 | 1.12 | 94 | 1010.5 |
| 20260507071005 | 17 | 299 | 0.0 | 1.6 | 0.00 | 1.73 | 1.12 | 93 | 1010.5 |
| 20260507070505 | 17 | 294 | 0.0 | 3.2 | 0.03 | 1.73 | 1.12 | 93 | 1010.5 |
| 20260507065506 | 17 | 94 | 0.0 | 3.2 | 0.08 | 1.73 | 1.12 | 93 | 1010.5 |
| 20260507065005 | 17 | 258 | 3.2 | 8.0 | 0.10 | 1.73 | 1.12 | 93 | 1010.5 |
| 20260507064005 | 17 | 22 | 1.6 | 4.8 | 0.18 | 1.73 | 1.12 | 93 | 1010.5 |
| 20260507063506 | 17 | 24 | 1.6 | 4.8 | 0.23 | 1.73 | 1.12 | 93 | 1010.5 |
| 20260507063006 | 17 | 28 | 0.0 | 3.2 | 0.28 | 1.73 | 1.12 | 93 | 1010.5 |
| 20260507062505 | 17 | 18 | 0.0 | 0.0 | 0.33 | 1.73 | 1.12 | 93 | 1010.5 |
| 20260507062005 | 17 | 16 | 0.0 | 0.0 | 0.36 | 1.73 | 1.12 | 93 | 1010.5 |
| 20260507061005 | 17 | 16 | 1.6 | 4.8 | 0.41 | 1.73 | 1.12 | 93 | 1011.0 |
| 20260507060505 | 17 | 36 | 0.0 | 1.6 | 0.46 | 1.73 | 1.12 | 93 | 1011.0 |
| 20260507060005 | 17 | 36 | 0.0 | 1.6 | 0.48 | 1.73 | 1.12 | 93 | 1012.0 |
| 20260507055505 | 17 | 36 | 0.0 | 1.6 | 0.48 | 1.70 | 1.09 | 94 | 1012.0 |
| 20260507055005 | 17 | 36 | 1.6 | 3.2 | 0.51 | 1.68 | 1.07 | 94 | 1012.0 |
| 20260507054505 | 17 | 17 | 0.0 | 3.2 | 0.51 | 1.63 | 1.02 | 93 | 1012.0 |
| 20260507054005 | 17 | 16 | 1.6 | 4.8 | 0.48 | 1.57 | 0.97 | 93 | 1012.0 |
| 20260507053505 | 17 | 15 | 1.6 | 4.8 | 0.51 | 1.55 | 0.94 | 93 | 1012.0 |
| 20260507053005 | 17 | 132 | 0.0 | 1.6 | 0.51 | 1.52 | 0.91 | 93 | 1012.0 |
| 20260507052506 | 17 | 132 | 0.0 | 3.2 | 0.61 | 1.47 | 0.86 | 93 | 1012.0 |
| 20260507052006 | 17 | 81 | 0.0 | 3.2 | 0.74 | 1.42 | 0.81 | 93 | 1012.0 |
| 20260507051506 | 17 | 13 | 1.6 | 3.2 | 0.74 | 1.37 | 0.76 | 93 | 1012.0 |
| 20260507051005 | 17 | 99 | 0.0 | 0.0 | 0.71 | 1.35 | 0.74 | 93 | 1012.6 |
| 20260507050505 | 17 | 99 | 0.0 | 0.0 | 0.71 | 1.32 | 0.71 | 93 | 1012.6 |
| 20260507050005 | 17 | 99 | 0.0 | 1.6 | 0.10 | 1.30 | 0.69 | 93 | 1012.6 |
| 20260507045505 | 17 | 12 | 0.0 | 3.2 | 0.05 | 1.24 | 0.64 | 93 | 1012.6 |
| 20260507045005 | 17 | 12 | 1.6 | 4.8 | 0.03 | 1.22 | 0.61 | 93 | 1012.6 |
| 20260507044504 | 17 | 121 | 0.0 | 4.8 | 0.58 | 1.17 | 0.56 | 93 | 1012.6 |
| 20260507043506 | 17 | 273 | 0.0 | 3.2 | 0.48 | 1.07 | 0.46 | 93 | 1012.6 |
| 20260507043006 | 17 | 34 | 1.6 | 3.2 | 0.46 | 1.04 | 0.43 | 93 | 1011.4 |
| 20260507042506 | 18 | 60 | 3.2 | 16.1 | 0.41 | 0.99 | 0.38 | 93 | 1011.4 |
| 20260507042006 | 18 | 324 | 3.2 | 11.3 | 0.28 | 0.84 | 0.23 | 93 | 1011.4 |
| 20260507041505 | 18 | 282 | 3.2 | 8.0 | 0.10 | 0.66 | 0.05 | 93 | 1011.4 |
| 20260507041005 | 18 | 346 | 3.2 | 4.8 | 0.08 | 0.64 | 0.03 | 93 | 1011.4 |
| 20260507040505 | 18 | 18 | 0.0 | 1.6 | 0.10 | 0.61 | 0.00 | 93 | 1011.4 |
| 20260507040005 | 18 | 232 | 0.0 | 3.2 | 0.15 | 0.61 | 0.00 | 93 | 1011.4 |
| 20260507035505 | 18 | 269 | 0.0 | 4.8 | 0.18 | 0.58 | 0.58 | 93 | 1011.4 |
| 20260507035005 | 18 | 11 | 1.6 | 4.8 | 0.18 | 0.58 | 0.58 | 93 | 1011.4 |
| 20260507034505 | 18 | 24 | 3.2 | 4.8 | 0.18 | 0.58 | 0.58 | 93 | 1011.4 |
| 20260507034005 | 18 | 14 | 1.6 | 3.2 | 0.18 | 0.58 | 0.58 | 93 | 1011.4 |
| 20260507033505 | 18 | 15 | 1.6 | 4.8 | 0.18 | 0.58 | 0.58 | 93 | 1011.4 |
| 20260507033007 | 18 | 44 | 0.0 | 1.6 | 0.18 | 0.58 | 0.58 | 93 | 1011.4 |
| 20260507032505 | 18 | 28 | 1.6 | 3.2 | 0.18 | 0.58 | 0.58 | 93 | 1011.4 |
| 20260507032005 | 18 | 28 | 0.0 | 3.2 | 0.18 | 0.58 | 0.58 | 93 | 1011.4 |
| 20260507031505 | 18 | 21 | 1.6 | 4.8 | 0.15 | 0.56 | 0.56 | 93 | 1011.4 |
| 20260507031005 | 18 | 113 | 4.8 | 12.9 | 0.15 | 0.56 | 0.56 | 93 | 1011.4 |
| 20260507030005 | 19 | 35 | 1.6 | 9.7 | 0.15 | 0.53 | 0.53 | 92 | 1011.4 |
| 20260507025504 | 20 | 26 | 4.8 | 11.3 | 0.13 | 0.51 | 0.51 | 93 | 1011.4 |
| 20260507025005 | 21 | 3 | 3.2 | 14.5 | 0.05 | 0.43 | 0.43 | 93 | 1011.4 |
| 20260507024505 | 21 | 268 | 0.0 | 0.0 | 0.03 | 0.41 | 0.41 | 93 | 1011.4 |
| 20260507024006 | 21 | 265 | 0.0 | 0.0 | 0.03 | 0.41 | 0.41 | 93 | 1011.4 |
| 20260507023505 | 21 | 251 | 0.0 | 0.0 | 0.03 | 0.41 | 0.41 | 93 | 1011.4 |
| 20260507022505 | 21 | 260 | 0.0 | 0.0 | 0.03 | 0.41 | 0.41 | 93 | 1011.4 |
| 20260507022005 | 21 | 260 | 0.0 | 0.0 | 0.03 | 0.41 | 0.41 | 93 | 1011.4 |
| 20260507021505 | 21 | 260 | 0.0 | 0.0 | 0.03 | 0.41 | 0.41 | 93 | 1011.4 |
| 20260507021006 | 21 | 260 | 0.0 | 0.0 | 0.03 | 0.41 | 0.41 | 93 | 1011.4 |
| 20260507020505 | 21 | 253 | 0.0 | 0.0 | 0.03 | 0.41 | 0.41 | 93 | 1011.4 |
| 20260507020005 | 21 | 162 | 0.0 | 0.0 | 0.03 | 0.41 | 0.41 | 93 | 1011.4 |
| 20260507015005 | 21 | 186 | 0.0 | 0.0 | 0.00 | 0.38 | 0.38 | 93 | 1011.4 |
| 20260507014005 | 21 | 171 | 0.0 | 0.0 | 0.00 | 0.38 | 0.38 | 93 | 1011.4 |
| 20260507013505 | 21 | 171 | 0.0 | 0.0 | 0.00 | 0.38 | 0.38 | 93 | 1011.4 |
| 20260507012506 | 21 | 171 | 0.0 | 0.0 | 0.00 | 0.38 | 0.38 | 93 | 1011.4 |
| 20260507012005 | 21 | 171 | 0.0 | 0.0 | 0.00 | 0.38 | 0.38 | 93 | 1011.4 |
| 20260507010506 | 21 | 171 | 0.0 | 0.0 | 0.03 | 0.38 | 0.38 | 93 | 1011.4 |
| 20260507010005 | 21 | 171 | 0.0 | 0.0 | 0.03 | 0.38 | 0.38 | 92 | 1011.4 |
| 20260507005505 | 21 | 171 | 0.0 | 0.0 | 0.03 | 0.38 | 0.38 | 92 | 1011.4 |
| 20260507004505 | 21 | 144 | 0.0 | 1.6 | 0.08 | 0.38 | 0.38 | 92 | 1011.4 |
| 20260507004005 | 21 | 118 | 0.0 | 1.6 | 0.08 | 0.38 | 0.38 | 92 | 1011.4 |
| 20260507003505 | 21 | 118 | 0.0 | 1.6 | 0.08 | 0.38 | 0.38 | 93 | 1011.4 |
| 20260507003006 | 21 | 118 | 0.0 | 1.6 | 0.08 | 0.38 | 0.38 | 92 | 1011.7 |
| 20260507002505 | 21 | 202 | 0.0 | 0.0 | 0.08 | 0.38 | 0.38 | 92 | 1011.7 |
| 20260507002005 | 21 | 202 | 0.0 | 3.2 | 0.08 | 0.38 | 0.38 | 92 | 1011.7 |
| 20260507001505 | 21 | 202 | 0.0 | 3.2 | 0.08 | 0.38 | 0.38 | 92 | 1011.7 |
| 20260507001006 | 21 | 207 | 0.0 | 4.8 | 0.05 | 0.36 | 0.36 | 92 | 1011.7 |
| 20260507000505 | 21 | 237 | 1.6 | 4.8 | 0.05 | 0.36 | 0.36 | 92 | 1011.7 |
| 20260507000005 | 21 | 200 | 0.0 | 1.6 | 0.05 | 0.36 | 0.36 | 92 | 1011.7 |
| 20260506235505 | 21 | 199 | 0.0 | 1.6 | 0.05 | 0.36 | 0.36 | 92 | 1011.7 |
| 20260506235007 | 21 | 199 | 0.0 | 1.6 | 0.05 | 0.36 | 0.36 | 92 | 1011.7 |
| 20260506234505 | 21 | 199 | 0.0 | 1.6 | 0.08 | 0.33 | 0.33 | 92 | 1011.7 |
| 20260506234005 | 21 | 199 | 0.0 | 1.6 | 0.15 | 0.30 | 0.30 | 92 | 1011.0 |
| 20260506233005 | 21 | 199 | 0.0 | 1.6 | 0.30 | 0.30 | 0.30 | 92 | 1011.0 |
| 20260506232506 | 21 | 199 | 0.0 | 1.6 | 0.30 | 0.30 | 0.30 | 91 | 1011.0 |
| 20260506232006 | 21 | 199 | 0.0 | 1.6 | 0.30 | 0.30 | 0.30 | 92 | 1011.0 |
| 20260506231505 | 21 | 199 | 0.0 | 1.6 | 0.30 | 0.30 | 0.30 | 91 | 1011.0 |
| 20260506231005 | 21 | 190 | 0.0 | 1.6 | 0.30 | 0.30 | 0.30 | 91 | 1011.0 |
| 20260506230506 | 21 | 254 | 0.0 | 1.6 | 0.30 | 0.30 | 0.30 | 91 | 1011.0 |
| 20260506230005 | 21 | 224 | 1.6 | 3.2 | 0.30 | 0.30 | 0.30 | 91 | 1011.0 |
| 20260506225504 | 21 | 223 | 1.6 | 9.7 | 0.30 | 0.30 | 0.30 | 90 | 1011.0 |
| 20260506224505 | 22 | 1 | 1.6 | 4.8 | 0.30 | 0.30 | 0.30 | 88 | 1011.0 |
| 20260506223505 | 23 | 229 | 1.6 | 8.0 | 0.20 | 0.20 | 0.20 | 82 | 1011.0 |
| 20260506223005 | 24 | 216 | 3.2 | 11.3 | 0.00 | 0.00 | 0.00 | 78 | 1011.0 |
| 20260506222505 | 24 | 198 | 1.6 | 8.0 | 0.00 | 0.00 | 0.00 | 77 | 1011.0 |
| 20260506222006 | 24 | 75 | 1.6 | 4.8 | 0.00 | 0.00 | 0.00 | 77 | 1011.0 |
| 20260506221505 | 24 | 300 | 1.6 | 4.8 | 0.00 | 0.00 | 0.00 | 77 | 1011.0 |
| 20260506221005 | 24 | 70 | 3.2 | 4.8 | 0.00 | 0.00 | 0.00 | 77 | 1012.0 |
| 20260506220505 | 24 | 194 | 3.2 | 9.7 | 0.00 | 0.00 | 0.00 | 76 | 1012.0 |
| 20260506220006 | 25 | 250 | 3.2 | 8.0 | 0.00 | 0.00 | 0.00 | 75 | 1012.0 |
| 20260506215006 | 25 | 195 | 1.6 | 8.0 | 0.00 | 0.00 | 0.00 | 75 | 1012.0 |
| 20260506214505 | 25 | 264 | 3.2 | 8.0 | 0.00 | 0.00 | 0.00 | 75 | 1012.0 |
| 20260506214006 | 25 | 262 | 1.6 | 11.3 | 0.00 | 0.00 | 0.00 | 75 | 1012.0 |
| 20260506213505 | 25 | 236 | 4.8 | 11.3 | 0.00 | 0.00 | 0.00 | 74 | 1012.0 |
| 20260506213004 | 25 | 0 | 3.2 | 9.7 | 0.00 | 0.00 | 0.00 | 75 | 1012.0 |
| 20260506212006 | 25 | 169 | 1.6 | 9.7 | 0.00 | 0.00 | 0.00 | 75 | 1012.0 |
| 20260506211505 | 25 | 298 | 1.6 | 9.7 | 0.00 | 0.00 | 0.00 | 74 | 1012.0 |
| 20260506211005 | 25 | 213 | 3.2 | 8.0 | 0.00 | 0.00 | 0.00 | 73 | 1012.0 |
| 20260506210505 | 25 | 19 | 1.6 | 4.8 | 0.00 | 0.00 | 0.00 | 73 | 1012.0 |
| 20260506210005 | 25 | 3 | 1.6 | 8.0 | 0.00 | 0.00 | 0.00 | 73 | 1012.0 |
| 20260506205505 | 25 | 216 | 3.2 | 8.0 | 0.00 | 0.00 | 0.00 | 72 | 1012.0 |
| 20260506205006 | 25 | 274 | 3.2 | 8.0 | 0.00 | 0.00 | 0.00 | 71 | 1012.0 |
| 20260506204005 | 25 | 163 | 3.2 | 14.5 | 0.00 | 0.00 | 0.00 | 71 | 1012.0 |
| 20260506203505 | 25 | 253 | 1.6 | 4.8 | 0.00 | 0.00 | 0.00 | 72 | 1012.0 |
| 20260506203005 | 25 | 130 | 1.6 | 4.8 | 0.00 | 0.00 | 0.00 | 71 | 1012.0 |
| 20260506202505 | 25 | 224 | 1.6 | 4.8 | 0.00 | 0.00 | 0.00 | 71 | 1012.0 |
| 20260506202005 | 25 | 58 | 1.6 | 8.0 | 0.00 | 0.00 | 0.00 | 71 | 1012.6 |
| 20260506201505 | 25 | 221 | 3.2 | 8.0 | 0.00 | 0.00 | 0.00 | 71 | 1012.6 |
| 20260506201006 | 25 | 156 | 3.2 | 12.9 | 0.00 | 0.00 | 0.00 | 70 | 1012.6 |
| 20260506200505 | 25 | 152 | 1.6 | 9.7 | 0.00 | 0.00 | 0.00 | 70 | 1012.6 |
| 20260506195005 | 25 | 183 | 3.2 | 19.3 | 0.00 | 0.00 | 0.00 | 68 | 1012.7 |
| 20260506194505 | 26 | 200 | 3.2 | 19.3 | 0.00 | 0.00 | 0.00 | 67 | 1012.7 |
| 20260506194005 | 26 | 359 | 3.2 | 11.3 | 0.00 | 0.00 | 0.00 | 67 | 1012.7 |
| 20260506193506 | 26 | 91 | 3.2 | 8.0 | 0.00 | 0.00 | 0.00 | 67 | 1012.7 |
| 20260506193005 | 26 | 241 | 3.2 | 8.0 | 0.00 | 0.00 | 0.00 | 67 | 1013.5 |
| 20260506192505 | 26 | 211 | 3.2 | 9.7 | 0.00 | 0.00 | 0.00 | 67 | 1013.5 |
| 20260506192006 | 26 | 340 | 1.6 | 4.8 | 0.00 | 0.00 | 0.00 | 66 | 1013.5 |
| 20260506191506 | 26 | 244 | 3.2 | 4.8 | 0.00 | 0.00 | 0.00 | 65 | 1013.5 |
| 20260506191007 | 27 | 356 | 3.2 | 4.8 | 0.00 | 0.00 | 0.00 | 63 | 1013.5 |
| 20260506190504 | 27 | 86 | 3.2 | 4.8 | 0.00 | 0.00 | 0.00 | 63 | 1013.5 |
| 20260506190007 | 27 | 251 | 3.2 | 11.3 | 0.00 | 0.00 | 0.00 | 62 | 1013.5 |
| 20260506185506 | 27 | 187 | 3.2 | 11.3 | 0.00 | 0.00 | 0.00 | 63 | 1013.5 |
| 20260506185005 | 27 | 178 | 1.6 | 4.8 | 0.00 | 0.00 | 0.00 | 65 | 1013.5 |
| 20260506184505 | 27 | 32 | 3.2 | 11.3 | 0.00 | 0.00 | 0.00 | 64 | 1013.5 |
| 20260506184005 | 27 | 117 | 1.6 | 4.8 | 0.00 | 0.00 | 0.00 | 65 | 1013.5 |
| 20260506183006 | 26 | 327 | 1.6 | 11.3 | 0.00 | 0.00 | 0.00 | 65 | 1013.5 |
| 20260506182506 | 26 | 260 | 1.6 | 9.7 | 0.00 | 0.00 | 0.00 | 67 | 1013.5 |
| 20260506182005 | 26 | 245 | 0.0 | 16.1 | 0.00 | 0.00 | 0.00 | 66 | 1013.5 |
| 20260506181505 | 26 | 225 | 4.8 | 16.1 | 0.00 | 0.00 | 0.00 | 65 | 1013.5 |
| 20260506180506 | 26 | 170 | 1.6 | 12.9 | 0.00 | 0.00 | 0.00 | 66 | 1013.5 |
| 20260506175505 | 26 | 27 | 0.0 | 8.0 | 0.00 | 0.00 | 0.00 | 66 | 1013.5 |
| 20260506175005 | 25 | 24 | 1.6 | 4.8 | 0.00 | 0.00 | 0.00 | 65 | 1013.5 |
| 20260506174505 | 25 | 176 | 1.6 | 19.3 | 0.00 | 0.00 | 0.00 | 65 | 1013.5 |
| 20260506174005 | 26 | 191 | 3.2 | 12.9 | 0.00 | 0.00 | 0.00 | 64 | 1013.5 |
| 20260506173504 | 26 | 231 | 6.4 | 16.1 | 0.00 | 0.00 | 0.00 | 64 | 1013.5 |
| 20260506173005 | 25 | 234 | 3.2 | 8.0 | 0.00 | 0.00 | 0.00 | 66 | 1013.5 |
| 20260506172506 | 25 | 156 | 3.2 | 8.0 | 0.00 | 0.00 | 0.00 | 65 | 1013.5 |
| 20260506171005 | 26 | 149 | 4.8 | 12.9 | 0.00 | 0.00 | 0.00 | 65 | 1013.6 |
| 20260506170506 | 26 | 165 | 4.8 | 12.9 | 0.00 | 0.00 | 0.00 | 65 | 1013.6 |
| 20260506165505 | 25 | 279 | 3.2 | 16.1 | 0.00 | 0.00 | 0.00 | 67 | 1013.6 |
| 20260506165005 | 25 | 28 | 4.8 | 16.1 | 0.00 | 0.00 | 0.00 | 67 | 1013.6 |
| 20260506164505 | 25 | 245 | 3.2 | 11.3 | 0.00 | 0.00 | 0.00 | 67 | 1013.6 |
| 20260506164005 | 25 | 285 | 1.6 | 11.3 | 0.00 | 0.00 | 0.00 | 69 | 1013.9 |
| 20260506163506 | 25 | 205 | 1.6 | 4.8 | 0.00 | 0.00 | 0.00 | 69 | 1013.9 |
| 20260506163006 | 25 | 214 | 3.2 | 9.7 | 0.00 | 0.00 | 0.00 | 69 | 1013.9 |
| 20260506162505 | 25 | 196 | 3.2 | 11.3 | 0.00 | 0.00 | 0.00 | 69 | 1013.9 |
| 20260506162004 | 24 | 185 | 3.2 | 8.0 | 0.00 | 0.00 | 0.00 | 71 | 1013.9 |
| 20260506161005 | 23 | 324 | 1.6 | 8.0 | 0.00 | 0.00 | 0.00 | 72 | 1014.1 |
| 20260506160505 | 23 | 128 | 3.2 | 14.5 | 0.00 | 0.00 | 0.00 | 72 | 1014.1 |
| 20260506160005 | 23 | 196 | 4.8 | 16.1 | 0.00 | 0.00 | 0.00 | 72 | 1014.1 |
| 20260506155504 | 23 | 212 | 3.2 | 11.3 | 0.00 | 0.00 | 0.00 | 73 | 1014.1 |
| 20260506155006 | 23 | 162 | 3.2 | 11.3 | 0.00 | 0.00 | 0.00 | 75 | 1013.3 |
| 20260506153505 | 23 | 332 | 1.6 | 4.8 | 0.00 | 0.00 | 0.00 | 75 | 1013.3 |
| 20260506153005 | 22 | 166 | 3.2 | 9.7 | 0.00 | 0.00 | 0.00 | 75 | 1013.3 |
| 20260506152504 | 23 | 258 | 3.2 | 4.8 | 0.00 | 0.00 | 0.00 | 75 | 1013.3 |
| 20260506151505 | 22 | 209 | 3.2 | 14.5 | 0.00 | 0.00 | 0.00 | 77 | 1013.3 |
| 20260506151006 | 21 | 173 | 3.2 | 11.3 | 0.00 | 0.00 | 0.00 | 79 | 1013.3 |
| 20260506150505 | 21 | 19 | 3.2 | 11.3 | 0.00 | 0.00 | 0.00 | 80 | 1013.3 |
| 20260506150006 | 21 | 147 | 3.2 | 19.3 | 0.00 | 0.00 | 0.00 | 80 | 1013.3 |
| 20260506145505 | 21 | 290 | 1.6 | 9.7 | 0.00 | 0.00 | 0.00 | 80 | 1013.3 |
| 20260506145005 | 21 | 218 | 3.2 | 9.7 | 0.00 | 0.00 | 0.00 | 80 | 1013.3 |
| 20260506144505 | 21 | 223 | 3.2 | 8.0 | 0.00 | 0.00 | 0.00 | 80 | 1013.3 |
| 20260506144005 | 21 | 265 | 3.2 | 14.5 | 0.00 | 0.00 | 0.00 | 80 | 1013.3 |
| 20260506143505 | 21 | 246 | 3.2 | 14.5 | 0.00 | 0.00 | 0.00 | 80 | 1013.3 |
| 20260506143005 | 21 | 213 | 4.8 | 14.5 | 0.00 | 0.00 | 0.00 | 79 | 1013.3 |
| 20260506142505 | 21 | 273 | 1.6 | 9.7 | 0.00 | 0.00 | 0.00 | 78 | 1013.3 |
| 20260506142006 | 21 | 268 | 1.6 | 11.3 | 0.00 | 0.00 | 0.00 | 77 | 1013.3 |
| 20260506141005 | 21 | 161 | 3.2 | 11.3 | 0.00 | 0.00 | 0.00 | 77 | 1013.3 |
| 20260506140505 | 21 | 223 | 1.6 | 9.7 | 0.00 | 0.00 | 0.00 | 77 | 1013.3 |
| 20260506140005 | 21 | 242 | 1.6 | 8.0 | 0.00 | 0.00 | 0.00 | 77 | 1013.3 |
| 20260506135504 | 21 | 246 | 3.2 | 9.7 | 0.00 | 0.00 | 0.00 | 77 | 1013.3 |
| 20260506135005 | 21 | 270 | 4.8 | 16.1 | 0.00 | 0.00 | 0.00 | 77 | 1013.3 |
| 20260506134505 | 20 | 200 | 3.2 | 12.9 | 0.00 | 0.00 | 0.00 | 78 | 1013.3 |
| 20260506134005 | 21 | 252 | 3.2 | 11.3 | 0.00 | 0.00 | 0.00 | 78 | 1013.3 |
| 20260506133505 | 20 | 243 | 4.8 | 14.5 | 0.00 | 0.00 | 0.00 | 79 | 1013.3 |
| 20260506133005 | 20 | 250 | 1.6 | 8.0 | 0.00 | 0.00 | 0.00 | 80 | 1013.3 |
| 20260506132505 | 20 | 215 | 3.2 | 9.7 | 0.00 | 0.00 | 0.00 | 80 | 1013.3 |
| 20260506132005 | 20 | 223 | 0.0 | 9.7 | 0.00 | 0.00 | 0.00 | 81 | 1013.3 |
| 20260506131006 | 20 | 85 | 1.6 | 12.9 | 0.00 | 0.00 | 0.00 | 82 | 1013.3 |
| 20260506130505 | 20 | 17 | 1.6 | 4.8 | 0.00 | 0.00 | 0.00 | 82 | 1013.3 |
| 20260506130006 | 20 | 112 | 1.6 | 4.8 | 0.00 | 0.00 | 0.00 | 83 | 1013.3 |
| 20260506125505 | 20 | 252 | 0.0 | 4.8 | 0.00 | 0.00 | 0.00 | 83 | 1013.3 |
| 20260506125005 | 20 | 140 | 1.6 | 4.8 | 0.00 | 0.00 | 0.00 | 84 | 1013.3 |
| 20260506124505 | 20 | 244 | 1.6 | 4.8 | 0.00 | 0.00 | 0.00 | 85 | 1013.3 |
| 20260506124005 | 19 | 191 | 1.6 | 4.8 | 0.00 | 0.00 | 0.00 | 86 | 1013.3 |
| 20260506123506 | 19 | 242 | 0.0 | 4.8 | 0.00 | 0.00 | 0.00 | 86 | 1013.3 |
| 20260506122505 | 19 | 242 | 1.6 | 8.0 | 0.00 | 0.00 | 0.00 | 86 | 1013.3 |
| 20260506122005 | 19 | 288 | 0.0 | 3.2 | 0.00 | 0.00 | 0.00 | 86 | 1013.3 |
| 20260506121504 | 19 | 8 | 0.0 | 1.6 | 0.00 | 0.00 | 0.00 | 86 | 1013.3 |
| 20260506121004 | 19 | 201 | 0.0 | 3.2 | 0.00 | 0.00 | 0.00 | 86 | 1013.3 |
| 20260506120505 | 18 | 227 | 0.0 | 4.8 | 0.00 | 0.00 | 0.00 | 86 | 1013.3 |
| 20260506120006 | 18 | 85 | 0.0 | 4.8 | 0.00 | 0.00 | 0.00 | 86 | 1012.3 |
| 20260506115506 | 18 | 84 | 0.0 | 3.2 | 0.00 | 0.00 | 0.00 | 86 | 1012.3 |
| 20260506115006 | 18 | 113 | 1.6 | 4.8 | 0.00 | 0.00 | 0.00 | 86 | 1012.3 |
| 20260506114504 | 18 | 157 | 1.6 | 4.8 | 0.00 | 0.00 | 0.00 | 86 | 1012.3 |
| 20260506114006 | 18 | 186 | 1.6 | 3.2 | 0.00 | 0.00 | 0.00 | 86 | 1012.3 |
| 20260506113505 | 18 | 234 | 1.6 | 3.2 | 0.00 | 0.00 | 0.00 | 86 | 1012.3 |
| 20260506113005 | 18 | 231 | 0.0 | 3.2 | 0.00 | 0.00 | 0.00 | 86 | 1012.3 |
| 20260506112504 | 18 | 155 | 0.0 | 3.2 | 0.00 | 0.00 | 0.00 | 87 | 1012.3 |
| 20260506112005 | 18 | 204 | 1.6 | 8.0 | 0.00 | 0.00 | 0.00 | 87 | 1012.3 |
| 20260506111505 | 18 | 69 | 0.0 | 4.8 | 0.00 | 0.00 | 0.00 | 87 | 1012.3 |
| 20260506111005 | 18 | 217 | 0.0 | 3.2 | 0.00 | 0.00 | 0.00 | 87 | 1012.3 |
| 20260506110005 | 18 | 162 | 0.0 | 4.8 | 0.00 | 0.00 | 0.00 | 87 | 1012.3 |
| 20260506105505 | 18 | 243 | 0.0 | 1.6 | 0.00 | 0.00 | 0.00 | 87 | 1012.3 |
| 20260506105005 | 18 | 202 | 0.0 | 0.0 | 0.00 | 0.00 | 0.00 | 87 | 1012.3 |
| 20260506104505 | 18 | 187 | 0.0 | 1.6 | 0.00 | 0.00 | 0.00 | 87 | 1012.3 |
| 20260506104005 | 18 | 211 | 0.0 | 1.6 | 0.00 | 0.00 | 0.00 | 87 | 1012.3 |
| 20260506103505 | 18 | 259 | 0.0 | 0.0 | 0.00 | 0.00 | 0.00 | 87 | 1012.3 |
| 20260506103005 | 18 | 270 | 0.0 | 3.2 | 0.00 | 0.00 | 0.00 | 87 | 1012.3 |
| 20260506101505 | 18 | 135 | 1.6 | 4.8 | 0.00 | 0.00 | 0.00 | 87 | 1011.6 |
| 20260506101005 | 18 | 159 | 0.0 | 1.6 | 0.00 | 0.00 | 0.00 | 87 | 1011.6 |